Sainte-Julie, Canada
Current Conditions -  °F | °C
As of 5:00 PM on Saturday 20 Dec 2014 (Local Time) from CYHU Reporting Station
Light Snow Light Snow  
Wind Chill: -5°   Ceiling: Unl
Heat Index:   Visibility: 1.2mi
Dew Point:   Wind: 7mph
Humidity: 85%   Direction: 30°NNE
Pressure: 30.36"   Gusts: NA
Location:  45.58°N, 73.33°W
Report Text: CYHU 202200Z AUTO 03006KT 1 1/4SM -SN FEW004 M14/M16 A3036 RMK SLP282
Loading
Personal Weather Stations






























Interactive Weather Map New forecast layout! Learn more

10-Day Weather Forecast

Advertisements
Track Severe Weather on mobile